sensor_id;sensor_type;location;lat;lon;timestamp;P1;durP1;ratioP1;P2;durP2;ratioP2
19905;SDS011;10115;50.906;4.438;2023-11-21T00:01:57;31.00;;;19.87;;
19905;SDS011;10115;50.906;4.438;2023-11-21T00:04:23;33.17;;;19.30;;
19905;SDS011;10115;50.906;4.438;2023-11-21T00:06:49;24.13;;;17.20;;
19905;SDS011;10115;50.906;4.438;2023-11-21T00:09:15;32.57;;;18.70;;
19905;SDS011;10115;50.906;4.438;2023-11-21T00:11:42;28.20;;;19.77;;
19905;SDS011;10115;50.906;4.438;2023-11-21T00:14:09;30.10;;;19.30;;
19905;SDS011;10115;50.906;4.438;2023-11-21T00:16:36;34.33;;;19.03;;
19905;SDS011;10115;50.906;4.438;2023-11-21T00:19:01;28.70;;;19.73;;
19905;SDS011;10115;50.906;4.438;2023-11-21T00:21:27;29.20;;;20.67;;
19905;SDS011;10115;50.906;4.438;2023-11-21T00:23:53;32.93;;;23.60;;
19905;SDS011;10115;50.906;4.438;2023-11-21T00:26:18;33.93;;;19.30;;
19905;SDS011;10115;50.906;4.438;2023-11-21T00:28:44;30.20;;;27.23;;
19905;SDS011;10115;50.906;4.438;2023-11-21T00:31:10;35.67;;;30.63;;
19905;SDS011;10115;50.906;4.438;2023-11-21T00:33:36;34.90;;;31.43;;
19905;SDS011;10115;50.906;4.438;2023-11-21T00:36:02;31.87;;;28.77;;
19905;SDS011;10115;50.906;4.438;2023-11-21T00:38:27;27.33;;;24.53;;
19905;SDS011;10115;50.906;4.438;2023-11-21T00:40:54;32.10;;;20.73;;
19905;SDS011;10115;50.906;4.438;2023-11-21T00:43:24;26.17;;;18.30;;
19905;SDS011;10115;50.906;4.438;2023-11-21T00:45:50;26.30;;;19.73;;
19905;SDS011;10115;50.906;4.438;2023-11-21T00:48:16;32.03;;;18.70;;
19905;SDS011;10115;50.906;4.438;2023-11-21T00:50:43;26.27;;;20.67;;
19905;SDS011;10115;50.906;4.438;2023-11-21T00:53:09;32.37;;;17.10;;
19905;SDS011;10115;50.906;4.438;2023-11-21T00:55:35;29.10;;;19.50;;
19905;SDS011;10115;50.906;4.438;2023-11-21T00:58:01;34.23;;;20.27;;
19905;SDS011;10115;50.906;4.438;2023-11-21T01:00:29;30.60;;;21.00;;
19905;SDS011;10115;50.906;4.438;2023-11-21T01:02:54;32.43;;;20.57;;
19905;SDS011;10115;50.906;4.438;2023-11-21T01:05:20;33.77;;;20.70;;
19905;SDS011;10115;50.906;4.438;2023-11-21T01:07:46;34.53;;;30.73;;
19905;SDS011;10115;50.906;4.438;2023-11-21T01:10:12;25.73;;;19.03;;
19905;SDS011;10115;50.906;4.438;2023-11-21T01:12:38;35.10;;;25.97;;
19905;SDS011;10115;50.906;4.438;2023-11-21T01:15:04;35.47;;;32.37;;
19905;SDS011;10115;50.906;4.438;2023-11-21T01:17:32;35.73;;;20.67;;
19905;SDS011;10115;50.906;4.438;2023-11-21T01:19:59;30.87;;;27.60;;
19905;SDS011;10115;50.906;4.438;2023-11-21T01:22:25;24.43;;;19.20;;
19905;SDS011;10115;50.906;4.438;2023-11-21T01:24:54;33.37;;;25.33;;
19905;SDS011;10115;50.906;4.438;2023-11-21T01:27:21;28.30;;;19.37;;
19905;SDS011;10115;50.906;4.438;2023-11-21T01:29:46;32.27;;;23.67;;
19905;SDS011;10115;50.906;4.438;2023-11-21T01:32:12;31.37;;;20.43;;
19905;SDS011;10115;50.906;4.438;2023-11-21T01:34:37;25.43;;;19.03;;
19905;SDS011;10115;50.906;4.438;2023-11-21T01:37:04;23.67;;;19.40;;
19905;SDS011;10115;50.906;4.438;2023-11-21T01:39:30;27.43;;;19.30;;
19905;SDS011;10115;50.906;4.438;2023-11-21T01:41:56;23.90;;;19.40;;
19905;SDS011;10115;50.906;4.438;2023-11-21T01:44:26;35.27;;;22.00;;
19905;SDS011;10115;50.906;4.438;2023-11-21T01:46:52;32.40;;;29.63;;
19905;SDS011;10115;50.906;4.438;2023-11-21T01:49:18;28.07;;;25.20;;
19905;SDS011;10115;50.906;4.438;2023-11-21T01:51:46;29.57;;;21.97;;
19905;SDS011;10115;50.906;4.438;2023-11-21T01:54:17;31.17;;;21.80;;
19905;SDS011;10115;50.906;4.438;2023-11-21T01:56:45;33.87;;;24.60;;
19905;SDS011;10115;50.906;4.438;2023-11-21T01:59:12;34.40;;;18.37;;
19905;SDS011;10115;50.906;4.438;2023-11-21T02:01:41;31.83;;;20.93;;
19905;SDS011;10115;50.906;4.438;2023-11-21T02:04:07;32.23;;;21.27;;
19905;SDS011;10115;50.906;4.438;2023-11-21T02:06:33;32.07;;;26.07;;
19905;SDS011;10115;50.906;4.438;2023-11-21T02:08:59;28.33;;;19.77;;
19905;SDS011;10115;50.906;4.438;2023-11-21T02:11:25;25.03;;;17.60;;
19905;SDS011;10115;50.906;4.438;2023-11-21T02:13:52;27.53;;;16.50;;
19905;SDS011;10115;50.906;4.438;2023-11-21T02:16:19;29.83;;;19.30;;
19905;SDS011;10115;50.906;4.438;2023-11-21T02:18:46;18.87;;;16.70;;
19905;SDS011;10115;50.906;4.438;2023-11-21T02:21:13;22.33;;;16.83;;
19905;SDS011;10115;50.906;4.438;2023-11-21T02:23:39;29.00;;;18.83;;
19905;SDS011;10115;50.906;4.438;2023-11-21T02:26:09;23.50;;;16.23;;
19905;SDS011;10115;50.906;4.438;2023-11-21T02:28:35;18.80;;;15.07;;
19905;SDS011;10115;50.906;4.438;2023-11-21T02:31:01;21.63;;;17.20;;
19905;SDS011;10115;50.906;4.438;2023-11-21T02:33:29;30.20;;;22.87;;
19905;SDS011;10115;50.906;4.438;2023-11-21T02:35:58;28.17;;;22.17;;
19905;SDS011;10115;50.906;4.438;2023-11-21T02:38:24;35.50;;;19.70;;
19905;SDS011;10115;50.906;4.438;2023-11-21T02:40:50;21.63;;;18.13;;
19905;SDS011;10115;50.906;4.438;2023-11-21T02:43:16;24.57;;;19.87;;
19905;SDS011;10115;50.906;4.438;2023-11-21T02:45:41;38.07;;;19.17;;
19905;SDS011;10115;50.906;4.438;2023-11-21T02:48:07;23.73;;;18.93;;
19905;SDS011;10115;50.906;4.438;2023-11-21T02:50:33;23.20;;;17.70;;
19905;SDS011;10115;50.906;4.438;2023-11-21T02:53:00;26.30;;;18.37;;
19905;SDS011;10115;50.906;4.438;2023-11-21T02:55:26;26.07;;;18.53;;
19905;SDS011;10115;50.906;4.438;2023-11-21T02:57:53;32.30;;;29.03;;
19905;SDS011;10115;50.906;4.438;2023-11-21T03:00:18;25.97;;;20.23;;
19905;SDS011;10115;50.906;4.438;2023-11-21T03:02:44;28.47;;;20.17;;
19905;SDS011;10115;50.906;4.438;2023-11-21T03:05:10;31.33;;;28.57;;
19905;SDS011;10115;50.906;4.438;2023-11-21T03:07:39;24.67;;;22.10;;
19905;SDS011;10115;50.906;4.438;2023-11-21T03:10:05;27.63;;;20.50;;
19905;SDS011;10115;50.906;4.438;2023-11-21T03:12:34;32.17;;;29.53;;
19905;SDS011;10115;50.906;4.438;2023-11-21T03:15:00;25.67;;;23.00;;
19905;SDS011;10115;50.906;4.438;2023-11-21T03:17:27;32.43;;;29.87;;
19905;SDS011;10115;50.906;4.438;2023-11-21T03:19:54;27.20;;;20.20;;
19905;SDS011;10115;50.906;4.438;2023-11-21T03:22:20;28.67;;;19.80;;
19905;SDS011;10115;50.906;4.438;2023-11-21T03:24:45;29.63;;;26.77;;
19905;SDS011;10115;50.906;4.438;2023-11-21T03:27:12;21.53;;;18.53;;
19905;SDS011;10115;50.906;4.438;2023-11-21T03:29:37;22.20;;;20.00;;
19905;SDS011;10115;50.906;4.438;2023-11-21T03:32:04;24.57;;;19.63;;
19905;SDS011;10115;50.906;4.438;2023-11-21T03:34:32;27.33;;;25.27;;
19905;SDS011;10115;50.906;4.438;2023-11-21T03:36:57;22.17;;;19.97;;
19905;SDS011;10115;50.906;4.438;2023-11-21T03:39:23;33.47;;;23.03;;
19905;SDS011;10115;50.906;4.438;2023-11-21T03:41:50;20.93;;;18.50;;
19905;SDS011;10115;50.906;4.438;2023-11-21T03:44:17;23.97;;;19.80;;
19905;SDS011;10115;50.906;4.438;2023-11-21T03:46:43;23.27;;;20.77;;
19905;SDS011;10115;50.906;4.438;2023-11-21T03:49:09;28.50;;;26.20;;
19905;SDS011;10115;50.906;4.438;2023-11-21T03:51:35;26.83;;;24.93;;
19905;SDS011;10115;50.906;4.438;2023-11-21T03:54:02;31.83;;;29.23;;
19905;SDS011;10115;50.906;4.438;2023-11-21T03:56:28;25.30;;;18.23;;
19905;SDS011;10115;50.906;4.438;2023-11-21T03:58:53;30.47;;;19.40;;
19905;SDS011;10115;50.906;4.438;2023-11-21T04:01:22;21.20;;;19.03;;
19905;SDS011;10115;50.906;4.438;2023-11-21T04:03:48;27.10;;;24.37;;
19905;SDS011;10115;50.906;4.438;2023-11-21T04:06:15;25.67;;;24.43;;
19905;SDS011;10115;50.906;4.438;2023-11-21T04:08:42;27.20;;;24.90;;
19905;SDS011;10115;50.906;4.438;2023-11-21T04:11:09;24.97;;;23.73;;
19905;SDS011;10115;50.906;4.438;2023-11-21T04:13:37;24.00;;;23.00;;
19905;SDS011;10115;50.906;4.438;2023-11-21T04:16:03;23.07;;;22.07;;
19905;SDS011;10115;50.906;4.438;2023-11-21T04:18:30;22.70;;;21.70;;
19905;SDS011;10115;50.906;4.438;2023-11-21T04:20:56;30.60;;;28.30;;
19905;SDS011;10115;50.906;4.438;2023-11-21T04:23:22;23.17;;;22.17;;
19905;SDS011;10115;50.906;4.438;2023-11-21T04:25:47;25.47;;;24.10;;
19905;SDS011;10115;50.906;4.438;2023-11-21T04:28:13;26.00;;;19.57;;
19905;SDS011;10115;50.906;4.438;2023-11-21T04:30:38;21.50;;;19.57;;
19905;SDS011;10115;50.906;4.438;2023-11-21T04:33:04;24.70;;;22.07;;
19905;SDS011;10115;50.906;4.438;2023-11-21T04:35:30;20.53;;;18.43;;
19905;SDS011;10115;50.906;4.438;2023-11-21T04:37:55;19.37;;;17.37;;
19905;SDS011;10115;50.906;4.438;2023-11-21T04:40:22;23.77;;;21.43;;
19905;SDS011;10115;50.906;4.438;2023-11-21T04:42:48;21.50;;;19.03;;
19905;SDS011;10115;50.906;4.438;2023-11-21T04:45:13;25.47;;;19.07;;
19905;SDS011;10115;50.906;4.438;2023-11-21T04:47:39;27.60;;;18.43;;
19905;SDS011;10115;50.906;4.438;2023-11-21T04:50:05;24.17;;;20.27;;
19905;SDS011;10115;50.906;4.438;2023-11-21T04:52:31;24.07;;;21.67;;
19905;SDS011;10115;50.906;4.438;2023-11-21T04:54:58;19.80;;;16.67;;
19905;SDS011;10115;50.906;4.438;2023-11-21T04:57:26;25.87;;;17.80;;
19905;SDS011;10115;50.906;4.438;2023-11-21T04:59:53;28.60;;;18.27;;
19905;SDS011;10115;50.906;4.438;2023-11-21T05:02:19;28.37;;;20.47;;
19905;SDS011;10115;50.906;4.438;2023-11-21T05:04:46;24.23;;;18.03;;
19905;SDS011;10115;50.906;4.438;2023-11-21T05:07:12;22.53;;;20.03;;
19905;SDS011;10115;50.906;4.438;2023-11-21T05:09:41;21.87;;;18.97;;
19905;SDS011;10115;50.906;4.438;2023-11-21T05:12:11;31.17;;;28.33;;
19905;SDS011;10115;50.906;4.438;2023-11-21T05:14:37;20.63;;;18.10;;
19905;SDS011;10115;50.906;4.438;2023-11-21T05:17:03;29.70;;;26.30;;
19905;SDS011;10115;50.906;4.438;2023-11-21T05:19:29;21.20;;;19.23;;
19905;SDS011;10115;50.906;4.438;2023-11-21T05:21:55;24.23;;;21.80;;
19905;SDS011;10115;50.906;4.438;2023-11-21T05:24:20;26.03;;;24.60;;
19905;SDS011;10115;50.906;4.438;2023-11-21T05:26:46;27.37;;;25.97;;
19905;SDS011;10115;50.906;4.438;2023-11-21T05:29:12;31.10;;;28.30;;
19905;SDS011;10115;50.906;4.438;2023-11-21T05:31:37;27.23;;;24.53;;
19905;SDS011;10115;50.906;4.438;2023-11-21T05:34:03;30.00;;;27.13;;
19905;SDS011;10115;50.906;4.438;2023-11-21T05:36:30;30.20;;;27.60;;
19905;SDS011;10115;50.906;4.438;2023-11-21T05:38:56;27.27;;;19.87;;
19905;SDS011;10115;50.906;4.438;2023-11-21T05:41:21;22.67;;;17.37;;
19905;SDS011;10115;50.906;4.438;2023-11-21T05:43:48;25.27;;;22.87;;
19905;SDS011;10115;50.906;4.438;2023-11-21T05:46:14;23.10;;;20.87;;
19905;SDS011;10115;50.906;4.438;2023-11-21T05:48:39;28.43;;;25.77;;
19905;SDS011;10115;50.906;4.438;2023-11-21T05:51:06;23.20;;;20.97;;
19905;SDS011;10115;50.906;4.438;2023-11-21T05:53:32;22.73;;;16.43;;
19905;SDS011;10115;50.906;4.438;2023-11-21T05:55:57;25.00;;;19.13;;
19905;SDS011;10115;50.906;4.438;2023-11-21T05:58:23;26.37;;;19.73;;
19905;SDS011;10115;50.906;4.438;2023-11-21T06:00:49;25.07;;;20.37;;
19905;SDS011;10115;50.906;4.438;2023-11-21T06:03:14;24.47;;;21.33;;
19905;SDS011;10115;50.906;4.438;2023-11-21T06:05:40;28.93;;;26.13;;
19905;SDS011;10115;50.906;4.438;2023-11-21T06:08:05;31.37;;;28.13;;
19905;SDS011;10115;50.906;4.438;2023-11-21T06:10:32;30.33;;;27.07;;
19905;SDS011;10115;50.906;4.438;2023-11-21T06:12:58;25.13;;;21.70;;
19905;SDS011;10115;50.906;4.438;2023-11-21T06:15:24;27.67;;;24.73;;
19905;SDS011;10115;50.906;4.438;2023-11-21T06:17:49;29.43;;;26.40;;
19905;SDS011;10115;50.906;4.438;2023-11-21T06:20:18;27.83;;;24.97;;
19905;SDS011;10115;50.906;4.438;2023-11-21T06:22:47;26.57;;;23.77;;
19905;SDS011;10115;50.906;4.438;2023-11-21T06:25:15;29.07;;;24.20;;
19905;SDS011;10115;50.906;4.438;2023-11-21T06:27:41;33.30;;;22.90;;
19905;SDS011;10115;50.906;4.438;2023-11-21T06:30:15;35.93;;;22.83;;
19905;SDS011;10115;50.906;4.438;2023-11-21T06:32:41;32.83;;;23.80;;
19905;SDS011;10115;50.906;4.438;2023-11-21T06:35:10;24.63;;;21.80;;
19905;SDS011;10115;50.906;4.438;2023-11-21T06:37:36;23.30;;;19.83;;
19905;SDS011;10115;50.906;4.438;2023-11-21T06:40:02;25.93;;;19.10;;
19905;SDS011;10115;50.906;4.438;2023-11-21T06:42:31;20.87;;;17.50;;
19905;SDS011;10115;50.906;4.438;2023-11-21T06:44:58;24.90;;;22.13;;
19905;SDS011;10115;50.906;4.438;2023-11-21T06:47:24;26.73;;;24.13;;
19905;SDS011;10115;50.906;4.438;2023-11-21T06:49:50;27.37;;;20.57;;
19905;SDS011;10115;50.906;4.438;2023-11-21T06:52:17;33.73;;;30.53;;
19905;SDS011;10115;50.906;4.438;2023-11-21T06:54:43;26.60;;;25.13;;
19905;SDS011;10115;50.906;4.438;2023-11-21T06:57:10;30.57;;;28.03;;
19905;SDS011;10115;50.906;4.438;2023-11-21T06:59:36;34.90;;;27.67;;
19905;SDS011;10115;50.906;4.438;2023-11-21T07:02:01;30.83;;;27.90;;
19905;SDS011;10115;50.906;4.438;2023-11-21T07:04:27;29.93;;;20.63;;
19905;SDS011;10115;50.906;4.438;2023-11-21T07:06:53;32.07;;;21.80;;
19905;SDS011;10115;50.906;4.438;2023-11-21T07:09:19;31.17;;;20.40;;
19905;SDS011;10115;50.906;4.438;2023-11-21T07:11:47;25.03;;;21.63;;
19905;SDS011;10115;50.906;4.438;2023-11-21T07:14:14;33.60;;;23.10;;
19905;SDS011;10115;50.906;4.438;2023-11-21T07:16:40;26.03;;;23.73;;
19905;SDS011;10115;50.906;4.438;2023-11-21T07:19:06;28.50;;;25.70;;
19905;SDS011;10115;50.906;4.438;2023-11-21T07:21:32;22.27;;;18.53;;
19905;SDS011;10115;50.906;4.438;2023-11-21T07:23:59;25.83;;;22.97;;
19905;SDS011;10115;50.906;4.438;2023-11-21T07:26:26;22.97;;;21.97;;
19905;SDS011;10115;50.906;4.438;2023-11-21T07:28:52;30.60;;;21.77;;
19905;SDS011;10115;50.906;4.438;2023-11-21T07:31:18;25.60;;;23.40;;
19905;SDS011;10115;50.906;4.438;2023-11-21T07:33:44;26.90;;;19.00;;
19905;SDS011;10115;50.906;4.438;2023-11-21T07:36:12;28.63;;;20.70;;
19905;SDS011;10115;50.906;4.438;2023-11-21T07:38:38;23.07;;;20.00;;
19905;SDS011;10115;50.906;4.438;2023-11-21T07:41:04;23.63;;;19.33;;
19905;SDS011;10115;50.906;4.438;2023-11-21T07:43:30;31.97;;;20.07;;
19905;SDS011;10115;50.906;4.438;2023-11-21T07:46:00;24.77;;;22.37;;
19905;SDS011;10115;50.906;4.438;2023-11-21T07:48:28;30.47;;;21.60;;
19905;SDS011;10115;50.906;4.438;2023-11-21T07:50:57;27.03;;;21.57;;
19905;SDS011;10115;50.906;4.438;2023-11-21T07:53:23;31.60;;;26.83;;
19905;SDS011;10115;50.906;4.438;2023-11-21T07:55:54;36.27;;;25.00;;
19905;SDS011;10115;50.906;4.438;2023-11-21T07:58:20;43.57;;;24.17;;
19905;SDS011;10115;50.906;4.438;2023-11-21T08:00:45;28.17;;;20.43;;
19905;SDS011;10115;50.906;4.438;2023-11-21T08:03:13;35.07;;;17.43;;
19905;SDS011;10115;50.906;4.438;2023-11-21T08:05:38;34.77;;;26.83;;
19905;SDS011;10115;50.906;4.438;2023-11-21T08:08:04;23.97;;;22.53;;
19905;SDS011;10115;50.906;4.438;2023-11-21T08:10:30;31.47;;;20.57;;
19905;SDS011;10115;50.906;4.438;2023-11-21T08:12:56;24.77;;;18.50;;
19905;SDS011;10115;50.906;4.438;2023-11-21T08:15:21;24.67;;;22.27;;
19905;SDS011;10115;50.906;4.438;2023-11-21T08:17:47;28.53;;;21.57;;
19905;SDS011;10115;50.906;4.438;2023-11-21T08:20:13;31.10;;;25.33;;
19905;SDS011;10115;50.906;4.438;2023-11-21T08:22:44;26.97;;;19.33;;
19905;SDS011;10115;50.906;4.438;2023-11-21T08:25:10;29.13;;;23.00;;
19905;SDS011;10115;50.906;4.438;2023-11-21T08:27:36;29.40;;;19.40;;
19905;SDS011;10115;50.906;4.438;2023-11-21T08:30:02;32.13;;;19.60;;
19905;SDS011;10115;50.906;4.438;2023-11-21T08:32:29;35.07;;;19.57;;
19905;SDS011;10115;50.906;4.438;2023-11-21T08:34:58;25.70;;;21.13;;
19905;SDS011;10115;50.906;4.438;2023-11-21T08:37:26;37.73;;;22.47;;
19905;SDS011;10115;50.906;4.438;2023-11-21T08:39:52;33.53;;;20.40;;
19905;SDS011;10115;50.906;4.438;2023-11-21T08:42:18;34.13;;;17.97;;
19905;SDS011;10115;50.906;4.438;2023-11-21T08:44:44;28.60;;;23.90;;
19905;SDS011;10115;50.906;4.438;2023-11-21T08:47:10;39.10;;;22.07;;
19905;SDS011;10115;50.906;4.438;2023-11-21T08:49:36;42.73;;;21.27;;
19905;SDS011;10115;50.906;4.438;2023-11-21T08:52:03;26.53;;;20.27;;
19905;SDS011;10115;50.906;4.438;2023-11-21T08:54:30;37.23;;;20.07;;
19905;SDS011;10115;50.906;4.438;2023-11-21T08:56:56;32.10;;;20.77;;
19905;SDS011;10115;50.906;4.438;2023-11-21T08:59:23;33.70;;;24.00;;
19905;SDS011;10115;50.906;4.438;2023-11-21T09:01:52;34.27;;;19.67;;
19905;SDS011;10115;50.906;4.438;2023-11-21T09:04:17;32.77;;;18.70;;
19905;SDS011;10115;50.906;4.438;2023-11-21T09:06:43;32.90;;;22.93;;
19905;SDS011;10115;50.906;4.438;2023-11-21T09:09:09;37.00;;;28.30;;
19905;SDS011;10115;50.906;4.438;2023-11-21T09:11:35;30.40;;;20.60;;
19905;SDS011;10115;50.906;4.438;2023-11-21T09:14:02;42.83;;;22.83;;
19905;SDS011;10115;50.906;4.438;2023-11-21T09:16:31;40.47;;;22.53;;
19905;SDS011;10115;50.906;4.438;2023-11-21T09:18:56;37.03;;;26.50;;
19905;SDS011;10115;50.906;4.438;2023-11-21T09:21:22;32.73;;;28.43;;
19905;SDS011;10115;50.906;4.438;2023-11-21T09:23:49;47.00;;;22.40;;
19905;SDS011;10115;50.906;4.438;2023-11-21T09:26:15;31.80;;;27.27;;
19905;SDS011;10115;50.906;4.438;2023-11-21T09:28:41;39.00;;;24.87;;
19905;SDS011;10115;50.906;4.438;2023-11-21T09:31:12;23.07;;;22.03;;
19905;SDS011;10115;50.906;4.438;2023-11-21T09:33:39;36.10;;;29.90;;
19905;SDS011;10115;50.906;4.438;2023-11-21T09:36:05;32.27;;;21.03;;
19905;SDS011;10115;50.906;4.438;2023-11-21T09:38:35;21.87;;;19.50;;
19905;SDS011;10115;50.906;4.438;2023-11-21T09:41:01;30.63;;;17.73;;
19905;SDS011;10115;50.906;4.438;2023-11-21T09:43:34;25.80;;;20.00;;
19905;SDS011;10115;50.906;4.438;2023-11-21T09:46:01;28.00;;;20.37;;
19905;SDS011;10115;50.906;4.438;2023-11-21T09:48:29;20.23;;;18.23;;
19905;SDS011;10115;50.906;4.438;2023-11-21T09:50:57;27.47;;;22.37;;
19905;SDS011;10115;50.906;4.438;2023-11-21T09:53:24;21.87;;;19.20;;
19905;SDS011;10115;50.906;4.438;2023-11-21T09:55:55;23.67;;;19.17;;
19905;SDS011;10115;50.906;4.438;2023-11-21T09:58:21;22.90;;;20.37;;
19905;SDS011;10115;50.906;4.438;2023-11-21T10:00:51;26.70;;;20.40;;
19905;SDS011;10115;50.906;4.438;2023-11-21T10:03:19;27.47;;;19.20;;
19905;SDS011;10115;50.906;4.438;2023-11-21T10:05:45;33.50;;;30.53;;
19905;SDS011;10115;50.906;4.438;2023-11-21T10:08:12;20.87;;;18.67;;
19905;SDS011;10115;50.906;4.438;2023-11-21T10:10:41;28.03;;;19.10;;
19905;SDS011;10115;50.906;4.438;2023-11-21T10:13:13;23.23;;;16.50;;
19905;SDS011;10115;50.906;4.438;2023-11-21T10:15:42;19.57;;;17.60;;
19905;SDS011;10115;50.906;4.438;2023-11-21T10:18:13;26.50;;;23.43;;
19905;SDS011;10115;50.906;4.438;2023-11-21T10:20:43;25.27;;;19.10;;
19905;SDS011;10115;50.906;4.438;2023-11-21T10:23:11;24.30;;;19.23;;
19905;SDS011;10115;50.906;4.438;2023-11-21T10:25:38;32.00;;;27.87;;
19905;SDS011;10115;50.906;4.438;2023-11-21T10:28:03;29.37;;;26.40;;
19905;SDS011;10115;50.906;4.438;2023-11-21T10:30:33;31.90;;;28.43;;
19905;SDS011;10115;50.906;4.438;2023-11-21T10:33:03;33.83;;;19.30;;
19905;SDS011;10115;50.906;4.438;2023-11-21T10:35:42;30.03;;;20.77;;
19905;SDS011;10115;50.906;4.438;2023-11-21T10:38:20;30.03;;;23.17;;
19905;SDS011;10115;50.906;4.438;2023-11-21T10:40:48;34.17;;;21.13;;
19905;SDS011;10115;50.906;4.438;2023-11-21T10:43:14;30.50;;;21.10;;
19905;SDS011;10115;50.906;4.438;2023-11-21T10:45:40;23.17;;;17.67;;
19905;SDS011;10115;50.906;4.438;2023-11-21T10:48:08;26.53;;;24.23;;
19905;SDS011;10115;50.906;4.438;2023-11-21T10:50:36;29.60;;;25.93;;
19905;SDS011;10115;50.906;4.438;2023-11-21T10:53:04;30.50;;;25.37;;
19905;SDS011;10115;50.906;4.438;2023-11-21T10:55:31;26.47;;;18.87;;
19905;SDS011;10115;50.906;4.438;2023-11-21T10:58:01;25.10;;;16.57;;
19905;SDS011;10115;50.906;4.438;2023-11-21T11:00:30;24.03;;;17.00;;
19905;SDS011;10115;50.906;4.438;2023-11-21T11:02:56;32.40;;;18.93;;
19905;SDS011;10115;50.906;4.438;2023-11-21T11:05:24;27.20;;;18.97;;
19905;SDS011;10115;50.906;4.438;2023-11-21T11:07:51;20.20;;;17.27;;
19905;SDS011;10115;50.906;4.438;2023-11-21T11:10:30;30.60;;;21.30;;
19905;SDS011;10115;50.906;4.438;2023-11-21T11:12:57;32.37;;;24.03;;
19905;SDS011;10115;50.906;4.438;2023-11-21T11:15:27;25.30;;;17.93;;
19905;SDS011;10115;50.906;4.438;2023-11-21T11:17:53;33.70;;;19.77;;
19905;SDS011;10115;50.906;4.438;2023-11-21T11:20:23;29.70;;;21.07;;
19905;SDS011;10115;50.906;4.438;2023-11-21T11:28:34;21.97;;;17.07;;
19905;SDS011;10115;50.906;4.438;2023-11-21T11:37:05;27.33;;;24.43;;
19905;SDS011;10115;50.906;4.438;2023-11-21T11:39:35;30.60;;;27.33;;
19905;SDS011;10115;50.906;4.438;2023-11-21T11:42:04;26.20;;;19.43;;
19905;SDS011;10115;50.906;4.438;2023-11-21T11:47:19;24.00;;;19.60;;
19905;SDS011;10115;50.906;4.438;2023-11-21T11:49:55;24.47;;;18.77;;
19905;SDS011;10115;50.906;4.438;2023-11-21T11:52:50;19.63;;;16.40;;
19905;SDS011;10115;50.906;4.438;2023-11-21T11:55:18;21.20;;;18.80;;
19905;SDS011;10115;50.906;4.438;2023-11-21T11:57:49;21.63;;;18.33;;
19905;SDS011;10115;50.906;4.438;2023-11-21T12:00:21;18.83;;;17.03;;
19905;SDS011;10115;50.906;4.438;2023-11-21T12:02:59;18.23;;;16.53;;
19905;SDS011;10115;50.906;4.438;2023-11-21T12:05:30;26.23;;;18.90;;
19905;SDS011;10115;50.906;4.438;2023-11-21T12:08:10;19.27;;;17.50;;
19905;SDS011;10115;50.906;4.438;2023-11-21T12:10:37;19.60;;;17.10;;
19905;SDS011;10115;50.906;4.438;2023-11-21T12:15:37;28.67;;;19.77;;
19905;SDS011;10115;50.906;4.438;2023-11-21T12:18:05;24.90;;;22.60;;
19905;SDS011;10115;50.906;4.438;2023-11-21T12:20:31;26.60;;;24.47;;
19905;SDS011;10115;50.906;4.438;2023-11-21T12:22:57;26.03;;;23.87;;
19905;SDS011;10115;50.906;4.438;2023-11-21T12:25:27;21.53;;;19.67;;
19905;SDS011;10115;50.906;4.438;2023-11-21T12:27:54;26.27;;;23.90;;
19905;SDS011;10115;50.906;4.438;2023-11-21T12:30:22;13.83;;;12.73;;
19905;SDS011;10115;50.906;4.438;2023-11-21T12:32:49;24.03;;;22.40;;
19905;SDS011;10115;50.906;4.438;2023-11-21T12:35:17;16.60;;;14.97;;
19905;SDS011;10115;50.906;4.438;2023-11-21T12:37:47;21.90;;;20.33;;
19905;SDS011;10115;50.906;4.438;2023-11-21T12:40:13;14.73;;;13.60;;
19905;SDS011;10115;50.906;4.438;2023-11-21T12:42:42;14.10;;;12.87;;
19905;SDS011;10115;50.906;4.438;2023-11-21T12:47:45;18.27;;;16.33;;
19905;SDS011;10115;50.906;4.438;2023-11-21T12:50:14;18.97;;;17.40;;
19905;SDS011;10115;50.906;4.438;2023-11-21T12:52:41;18.33;;;16.63;;
19905;SDS011;10115;50.906;4.438;2023-11-21T12:55:09;16.47;;;15.07;;
19905;SDS011;10115;50.906;4.438;2023-11-21T12:57:35;17.20;;;15.60;;
19905;SDS011;10115;50.906;4.438;2023-11-21T13:00:03;15.57;;;13.97;;
19905;SDS011;10115;50.906;4.438;2023-11-21T13:02:37;19.00;;;17.80;;
19905;SDS011;10115;50.906;4.438;2023-11-21T13:05:03;23.17;;;21.67;;
19905;SDS011;10115;50.906;4.438;2023-11-21T13:07:41;16.53;;;15.23;;
19905;SDS011;10115;50.906;4.438;2023-11-21T13:10:12;16.00;;;14.60;;
19905;SDS011;10115;50.906;4.438;2023-11-21T13:12:42;16.77;;;14.80;;
19905;SDS011;10115;50.906;4.438;2023-11-21T13:15:13;15.20;;;13.70;;
19905;SDS011;10115;50.906;4.438;2023-11-21T13:17:42;14.83;;;13.70;;
19905;SDS011;10115;50.906;4.438;2023-11-21T13:20:10;22.63;;;21.20;;
19905;SDS011;10115;50.906;4.438;2023-11-21T13:22:45;14.60;;;13.50;;
19905;SDS011;10115;50.906;4.438;2023-11-21T13:25:11;15.53;;;14.13;;
19905;SDS011;10115;50.906;4.438;2023-11-21T13:27:36;14.60;;;13.30;;
19905;SDS011;10115;50.906;4.438;2023-11-21T13:30:03;13.77;;;12.67;;
19905;SDS011;10115;50.906;4.438;2023-11-21T13:32:29;13.50;;;12.50;;
19905;SDS011;10115;50.906;4.438;2023-11-21T13:34:57;14.00;;;13.10;;
19905;SDS011;10115;50.906;4.438;2023-11-21T13:37:24;15.30;;;14.20;;
19905;SDS011;10115;50.906;4.438;2023-11-21T13:39:53;20.97;;;19.57;;
19905;SDS011;10115;50.906;4.438;2023-11-21T13:42:19;15.13;;;14.07;;
19905;SDS011;10115;50.906;4.438;2023-11-21T13:44:55;19.60;;;18.50;;
19905;SDS011;10115;50.906;4.438;2023-11-21T13:47:21;22.73;;;21.23;;
19905;SDS011;10115;50.906;4.438;2023-11-21T13:49:50;13.33;;;12.43;;
19905;SDS011;10115;50.906;4.438;2023-11-21T13:52:17;13.53;;;12.43;;
19905;SDS011;10115;50.906;4.438;2023-11-21T13:54:45;12.00;;;10.90;;
19905;SDS011;10115;50.906;4.438;2023-11-21T13:57:12;11.37;;;10.67;;
19905;SDS011;10115;50.906;4.438;2023-11-21T13:59:38;11.60;;;10.90;;
19905;SDS011;10115;50.906;4.438;2023-11-21T14:02:04;10.10;;;9.40;;
19905;SDS011;10115;50.906;4.438;2023-11-21T14:04:59;12.13;;;11.40;;
19905;SDS011;10115;50.906;4.438;2023-11-21T14:07:28;12.80;;;11.60;;
19905;SDS011;10115;50.906;4.438;2023-11-21T14:10:02;21.93;;;20.63;;
19905;SDS011;10115;50.906;4.438;2023-11-21T14:12:30;10.43;;;9.83;;
19905;SDS011;10115;50.906;4.438;2023-11-21T14:14:59;9.77;;;9.17;;
19905;SDS011;10115;50.906;4.438;2023-11-21T14:17:25;12.00;;;11.00;;
19905;SDS011;10115;50.906;4.438;2023-11-21T14:19:52;22.30;;;20.73;;
19905;SDS011;10115;50.906;4.438;2023-11-21T14:22:20;14.80;;;13.40;;
19905;SDS011;10115;50.906;4.438;2023-11-21T14:24:46;11.30;;;10.40;;
19905;SDS011;10115;50.906;4.438;2023-11-21T14:27:12;18.03;;;17.23;;
19905;SDS011;10115;50.906;4.438;2023-11-21T14:29:38;18.43;;;17.47;;
19905;SDS011;10115;50.906;4.438;2023-11-21T14:32:08;14.17;;;13.27;;
19905;SDS011;10115;50.906;4.438;2023-11-21T14:34:34;15.57;;;14.77;;
19905;SDS011;10115;50.906;4.438;2023-11-21T14:36:59;10.23;;;9.43;;
19905;SDS011;10115;50.906;4.438;2023-11-21T14:39:28;10.37;;;9.67;;
19905;SDS011;10115;50.906;4.438;2023-11-21T14:41:54;9.57;;;8.90;;